sensor_id;sensor_type;location;lat;lon;timestamp;pressure;altitude;pressure_sealevel;temperature;humidity
72262;BME280;60173;52.112;8.648;2022-07-15T00:02:13;101070.31;;;12.74;77.49
72262;BME280;60173;52.112;8.648;2022-07-15T00:04:40;101075.91;;;12.63;78.14
72262;BME280;60173;52.112;8.648;2022-07-15T00:07:06;101065.28;;;12.48;78.49
72262;BME280;60173;52.112;8.648;2022-07-15T00:09:33;101075.81;;;12.36;79.18
72262;BME280;60173;52.112;8.648;2022-07-15T00:12:00;101077.84;;;12.25;79.63
72262;BME280;60173;52.112;8.648;2022-07-15T00:14:26;101080.22;;;12.13;80.27
72262;BME280;60173;52.112;8.648;2022-07-15T00:16:52;101077.03;;;12.06;80.58
72262;BME280;60173;52.112;8.648;2022-07-15T00:19:19;101077.56;;;12.08;80.71
72262;BME280;60173;52.112;8.648;2022-07-15T00:21:45;101070.78;;;12.05;80.71
72262;BME280;60173;52.112;8.648;2022-07-15T00:24:12;101073.28;;;12.02;80.81
72262;BME280;60173;52.112;8.648;2022-07-15T00:26:38;101077.75;;;11.92;81.15
72262;BME280;60173;52.112;8.648;2022-07-15T00:29:04;101077.97;;;11.96;81.18
72262;BME280;60173;52.112;8.648;2022-07-15T00:31:31;101074.69;;;11.99;81.04
72262;BME280;60173;52.112;8.648;2022-07-15T00:33:58;101084.38;;;12.05;80.85
72262;BME280;60173;52.112;8.648;2022-07-15T00:36:24;101083.28;;;12.06;80.48
72262;BME280;60173;52.112;8.648;2022-07-15T00:38:50;101077.84;;;12.06;80.75
72262;BME280;60173;52.112;8.648;2022-07-15T00:41:17;101081.59;;;12.10;80.70
72262;BME280;60173;52.112;8.648;2022-07-15T00:43:43;101082.34;;;12.16;80.52
72262;BME280;60173;52.112;8.648;2022-07-15T00:46:15;101076.63;;;12.36;79.92
72262;BME280;60173;52.112;8.648;2022-07-15T00:48:42;101075.13;;;12.63;78.41
72262;BME280;60173;52.112;8.648;2022-07-15T00:51:08;101080.50;;;12.68;77.96
72262;BME280;60173;52.112;8.648;2022-07-15T00:53:36;101078.16;;;12.61;78.29
72262;BME280;60173;52.112;8.648;2022-07-15T00:56:07;101077.63;;;12.59;78.32
72262;BME280;60173;52.112;8.648;2022-07-15T00:58:37;101081.22;;;12.55;78.75
72262;BME280;60173;52.112;8.648;2022-07-15T01:01:04;101084.81;;;12.69;78.42
72262;BME280;60173;52.112;8.648;2022-07-15T01:03:31;101088.13;;;12.85;77.94
72262;BME280;60173;52.112;8.648;2022-07-15T01:05:58;101080.38;;;12.92;77.35
72262;BME280;60173;52.112;8.648;2022-07-15T01:08:24;101083.22;;;13.01;77.05
72262;BME280;60173;52.112;8.648;2022-07-15T01:10:52;101080.50;;;13.01;77.10
72262;BME280;60173;52.112;8.648;2022-07-15T01:13:19;101095.06;;;13.10;76.49
72262;BME280;60173;52.112;8.648;2022-07-15T01:15:46;101094.25;;;13.09;76.75
72262;BME280;60173;52.112;8.648;2022-07-15T01:18:13;101087.78;;;13.05;77.00
72262;BME280;60173;52.112;8.648;2022-07-15T01:20:43;101085.13;;;13.00;77.02
72262;BME280;60173;52.112;8.648;2022-07-15T01:23:10;101096.84;;;13.01;77.09
72262;BME280;60173;52.112;8.648;2022-07-15T01:25:36;101096.94;;;12.96;77.15
72262;BME280;60173;52.112;8.648;2022-07-15T01:28:03;101088.53;;;12.92;77.47
72262;BME280;60173;52.112;8.648;2022-07-15T01:30:30;101104.31;;;12.95;77.35
72262;BME280;60173;52.112;8.648;2022-07-15T01:32:57;101099.28;;;13.02;77.16
72262;BME280;60173;52.112;8.648;2022-07-15T01:35:23;101093.59;;;12.85;77.57
72262;BME280;60173;52.112;8.648;2022-07-15T01:37:50;101100.13;;;12.84;78.21
72262;BME280;60173;52.112;8.648;2022-07-15T01:40:16;101099.41;;;12.78;78.37
72262;BME280;60173;52.112;8.648;2022-07-15T01:42:43;101097.97;;;12.67;78.49
72262;BME280;60173;52.112;8.648;2022-07-15T01:45:10;101095.81;;;12.45;79.24
72262;BME280;60173;52.112;8.648;2022-07-15T01:47:47;101099.38;;;12.27;79.85
72262;BME280;60173;52.112;8.648;2022-07-15T01:50:15;101097.88;;;12.15;80.65
72262;BME280;60173;52.112;8.648;2022-07-15T01:52:41;101104.97;;;11.92;80.98
72262;BME280;60173;52.112;8.648;2022-07-15T01:55:09;101106.44;;;11.80;81.81
72262;BME280;60173;52.112;8.648;2022-07-15T01:57:35;101105.41;;;11.75;82.40
72262;BME280;60173;52.112;8.648;2022-07-15T02:00:03;101104.34;;;11.71;82.34
72262;BME280;60173;52.112;8.648;2022-07-15T02:02:30;101109.00;;;11.71;82.47
72262;BME280;60173;52.112;8.648;2022-07-15T02:04:56;101103.47;;;11.57;82.45
72262;BME280;60173;52.112;8.648;2022-07-15T02:07:23;101099.72;;;11.48;82.84
72262;BME280;60173;52.112;8.648;2022-07-15T02:09:49;101104.72;;;11.41;83.38
72262;BME280;60173;52.112;8.648;2022-07-15T02:12:16;101099.53;;;11.39;83.74
72262;BME280;60173;52.112;8.648;2022-07-15T02:14:42;101103.41;;;11.33;83.95
72262;BME280;60173;52.112;8.648;2022-07-15T02:17:09;101106.22;;;11.52;83.28
72262;BME280;60173;52.112;8.648;2022-07-15T02:19:35;101109.19;;;11.56;82.70
72262;BME280;60173;52.112;8.648;2022-07-15T02:22:02;101107.38;;;11.46;82.81
72262;BME280;60173;52.112;8.648;2022-07-15T02:24:28;101100.06;;;11.41;83.10
72262;BME280;60173;52.112;8.648;2022-07-15T02:26:54;101110.72;;;11.38;83.28
72262;BME280;60173;52.112;8.648;2022-07-15T02:29:21;101113.53;;;11.27;83.84
72262;BME280;60173;52.112;8.648;2022-07-15T02:31:47;101110.56;;;11.24;83.76
72262;BME280;60173;52.112;8.648;2022-07-15T02:34:14;101116.94;;;11.14;84.08
72262;BME280;60173;52.112;8.648;2022-07-15T02:36:40;101115.88;;;11.10;84.27
72262;BME280;60173;52.112;8.648;2022-07-15T02:39:07;101123.97;;;11.15;84.35
72262;BME280;60173;52.112;8.648;2022-07-15T02:41:33;101122.09;;;11.11;84.06
72262;BME280;60173;52.112;8.648;2022-07-15T02:44:00;101121.63;;;11.03;84.57
72262;BME280;60173;52.112;8.648;2022-07-15T02:46:26;101135.03;;;10.95;84.69
72262;BME280;60173;52.112;8.648;2022-07-15T02:48:53;101128.78;;;10.94;84.91
72262;BME280;60173;52.112;8.648;2022-07-15T02:51:19;101135.50;;;11.02;84.69
72262;BME280;60173;52.112;8.648;2022-07-15T02:53:46;101133.34;;;10.99;84.71
72262;BME280;60173;52.112;8.648;2022-07-15T02:56:12;101134.47;;;10.98;84.37
72262;BME280;60173;52.112;8.648;2022-07-15T02:58:38;101135.78;;;11.00;84.39
72262;BME280;60173;52.112;8.648;2022-07-15T03:01:05;101138.50;;;11.00;84.37
72262;BME280;60173;52.112;8.648;2022-07-15T03:03:31;101139.34;;;10.96;84.38
72262;BME280;60173;52.112;8.648;2022-07-15T03:05:58;101142.13;;;10.91;84.37
72262;BME280;60173;52.112;8.648;2022-07-15T03:08:25;101141.63;;;10.83;84.39
72262;BME280;60173;52.112;8.648;2022-07-15T03:10:51;101148.72;;;10.79;84.61
72262;BME280;60173;52.112;8.648;2022-07-15T03:13:18;101142.47;;;10.79;84.85
72262;BME280;60173;52.112;8.648;2022-07-15T03:15:44;101151.47;;;10.74;84.69
72262;BME280;60173;52.112;8.648;2022-07-15T03:18:11;101144.09;;;10.80;84.57
72262;BME280;60173;52.112;8.648;2022-07-15T03:20:37;101144.00;;;10.90;84.73
72262;BME280;60173;52.112;8.648;2022-07-15T03:23:04;101141.84;;;10.92;84.45
72262;BME280;60173;52.112;8.648;2022-07-15T03:25:30;101148.53;;;11.05;84.33
72262;BME280;60173;52.112;8.648;2022-07-15T03:27:57;101149.88;;;11.07;84.24
72262;BME280;60173;52.112;8.648;2022-07-15T03:30:23;101154.03;;;11.00;84.33
72262;BME280;60173;52.112;8.648;2022-07-15T03:32:49;101149.09;;;11.02;84.61
72262;BME280;60173;52.112;8.648;2022-07-15T03:35:16;101145.88;;;11.00;84.78
72262;BME280;60173;52.112;8.648;2022-07-15T03:37:42;101150.19;;;11.01;84.70
72262;BME280;60173;52.112;8.648;2022-07-15T03:40:09;101151.78;;;11.07;84.55
72262;BME280;60173;52.112;8.648;2022-07-15T03:42:36;101149.88;;;11.07;84.83
72262;BME280;60173;52.112;8.648;2022-07-15T03:45:02;101150.63;;;11.13;84.46
72262;BME280;60173;52.112;8.648;2022-07-15T03:47:29;101150.69;;;11.08;84.46
72262;BME280;60173;52.112;8.648;2022-07-15T03:49:55;101153.41;;;11.08;84.38
72262;BME280;60173;52.112;8.648;2022-07-15T03:52:22;101155.56;;;11.11;84.56
72262;BME280;60173;52.112;8.648;2022-07-15T03:54:48;101156.13;;;11.08;84.58
72262;BME280;60173;52.112;8.648;2022-07-15T03:57:15;101159.94;;;11.07;84.46
72262;BME280;60173;52.112;8.648;2022-07-15T03:59:41;101162.63;;;11.12;84.36
72262;BME280;60173;52.112;8.648;2022-07-15T04:02:07;101162.03;;;11.15;84.71
72262;BME280;60173;52.112;8.648;2022-07-15T04:04:34;101157.56;;;11.29;84.29
72262;BME280;60173;52.112;8.648;2022-07-15T04:07:00;101173.84;;;11.35;83.62
72262;BME280;60173;52.112;8.648;2022-07-15T04:09:27;101167.50;;;11.44;83.29
72262;BME280;60173;52.112;8.648;2022-07-15T04:11:53;101168.50;;;11.53;82.98
72262;BME280;60173;52.112;8.648;2022-07-15T04:14:19;101167.69;;;11.53;83.19
72262;BME280;60173;52.112;8.648;2022-07-15T04:16:46;101172.50;;;11.61;83.23
72262;BME280;60173;52.112;8.648;2022-07-15T04:19:12;101171.41;;;11.62;82.97
72262;BME280;60173;52.112;8.648;2022-07-15T04:21:39;101170.00;;;11.65;82.69
72262;BME280;60173;52.112;8.648;2022-07-15T04:24:05;101176.53;;;11.69;82.45
72262;BME280;60173;52.112;8.648;2022-07-15T04:26:31;101172.69;;;11.70;82.26
72262;BME280;60173;52.112;8.648;2022-07-15T04:28:58;101173.09;;;11.82;81.85
72262;BME280;60173;52.112;8.648;2022-07-15T04:31:24;101178.84;;;11.81;81.70
72262;BME280;60173;52.112;8.648;2022-07-15T04:33:51;101177.59;;;11.97;81.26
72262;BME280;60173;52.112;8.648;2022-07-15T04:36:17;101189.06;;;11.94;81.30
72262;BME280;60173;52.112;8.648;2022-07-15T04:38:44;101189.06;;;11.94;81.39
72262;BME280;60173;52.112;8.648;2022-07-15T04:41:10;101185.25;;;11.95;81.30
72262;BME280;60173;52.112;8.648;2022-07-15T04:43:38;101181.06;;;12.03;80.81
72262;BME280;60173;52.112;8.648;2022-07-15T04:46:04;101181.19;;;12.16;80.50
72262;BME280;60173;52.112;8.648;2022-07-15T04:48:31;101190.78;;;12.33;80.11
72262;BME280;60173;52.112;8.648;2022-07-15T04:50:57;101188.09;;;12.52;79.32
72262;BME280;60173;52.112;8.648;2022-07-15T04:53:23;101194.44;;;12.66;79.04
72262;BME280;60173;52.112;8.648;2022-07-15T04:55:50;101188.84;;;12.76;78.48
72262;BME280;60173;52.112;8.648;2022-07-15T04:58:16;101181.72;;;13.13;77.22
72262;BME280;60173;52.112;8.648;2022-07-15T05:00:44;101192.94;;;13.30;76.38
72262;BME280;60173;52.112;8.648;2022-07-15T05:03:11;101185.91;;;13.43;75.84
72262;BME280;60173;52.112;8.648;2022-07-15T05:05:38;101190.56;;;13.56;75.14
72262;BME280;60173;52.112;8.648;2022-07-15T05:08:04;101192.25;;;13.71;74.95
72262;BME280;60173;52.112;8.648;2022-07-15T05:10:36;101192.97;;;13.77;74.46
72262;BME280;60173;52.112;8.648;2022-07-15T05:13:04;101195.88;;;13.81;74.34
72262;BME280;60173;52.112;8.648;2022-07-15T05:15:31;101209.03;;;13.92;73.90
72262;BME280;60173;52.112;8.648;2022-07-15T05:17:57;101206.59;;;13.77;74.10
72262;BME280;60173;52.112;8.648;2022-07-15T05:20:24;101207.91;;;13.93;73.12
72262;BME280;60173;52.112;8.648;2022-07-15T05:22:50;101211.09;;;14.00;73.11
72262;BME280;60173;52.112;8.648;2022-07-15T05:25:17;101205.69;;;13.82;73.12
72262;BME280;60173;52.112;8.648;2022-07-15T05:27:44;101213.47;;;13.88;72.84
72262;BME280;60173;52.112;8.648;2022-07-15T05:30:11;101216.31;;;13.83;71.87
72262;BME280;60173;52.112;8.648;2022-07-15T05:32:38;101217.41;;;13.82;72.06
72262;BME280;60173;52.112;8.648;2022-07-15T05:35:04;101217.19;;;13.65;72.99
72262;BME280;60173;52.112;8.648;2022-07-15T05:37:31;101217.38;;;13.54;72.79
72262;BME280;60173;52.112;8.648;2022-07-15T05:39:57;101213.25;;;13.71;72.62
72262;BME280;60173;52.112;8.648;2022-07-15T05:42:24;101216.59;;;13.82;72.33
72262;BME280;60173;52.112;8.648;2022-07-15T05:44:50;101221.41;;;14.04;71.53
72262;BME280;60173;52.112;8.648;2022-07-15T05:47:17;101212.97;;;14.00;71.11
72262;BME280;60173;52.112;8.648;2022-07-15T05:49:43;101219.38;;;14.09;71.54
72262;BME280;60173;52.112;8.648;2022-07-15T05:52:09;101216.34;;;14.24;70.60
72262;BME280;60173;52.112;8.648;2022-07-15T05:54:36;101219.78;;;14.44;70.13
72262;BME280;60173;52.112;8.648;2022-07-15T05:57:03;101222.41;;;14.35;70.04
72262;BME280;60173;52.112;8.648;2022-07-15T05:59:29;101222.78;;;14.42;70.40
72262;BME280;60173;52.112;8.648;2022-07-15T06:01:56;101230.50;;;14.27;70.78
72262;BME280;60173;52.112;8.648;2022-07-15T06:04:22;101221.91;;;14.47;70.09
72262;BME280;60173;52.112;8.648;2022-07-15T06:06:48;101229.69;;;14.54;69.73
72262;BME280;60173;52.112;8.648;2022-07-15T06:09:15;101218.34;;;14.46;69.91
72262;BME280;60173;52.112;8.648;2022-07-15T06:11:41;101232.94;;;14.69;68.52
72262;BME280;60173;52.112;8.648;2022-07-15T06:14:07;101228.06;;;15.03;67.82
72262;BME280;60173;52.112;8.648;2022-07-15T06:16:34;101229.75;;;15.12;67.33
72262;BME280;60173;52.112;8.648;2022-07-15T06:19:00;101226.09;;;15.17;67.48
72262;BME280;60173;52.112;8.648;2022-07-15T06:21:27;101228.34;;;15.37;66.57
72262;BME280;60173;52.112;8.648;2022-07-15T06:23:53;101228.75;;;15.53;65.69
72262;BME280;60173;52.112;8.648;2022-07-15T06:26:19;101226.81;;;15.76;66.04
72262;BME280;60173;52.112;8.648;2022-07-15T06:28:46;101224.28;;;15.80;64.61
72262;BME280;60173;52.112;8.648;2022-07-15T06:31:14;101224.13;;;15.85;65.32
72262;BME280;60173;52.112;8.648;2022-07-15T06:33:41;101226.56;;;15.87;64.94
72262;BME280;60173;52.112;8.648;2022-07-15T06:36:08;101228.56;;;16.52;62.73
72262;BME280;60173;52.112;8.648;2022-07-15T06:38:34;101228.06;;;16.50;62.26
72262;BME280;60173;52.112;8.648;2022-07-15T06:41:00;101217.56;;;16.35;63.57
72262;BME280;60173;52.112;8.648;2022-07-15T06:43:27;101225.72;;;16.17;63.27
72262;BME280;60173;52.112;8.648;2022-07-15T06:45:53;101227.84;;;16.20;63.39
72262;BME280;60173;52.112;8.648;2022-07-15T06:48:20;101227.31;;;16.67;62.35
72262;BME280;60173;52.112;8.648;2022-07-15T06:50:46;101233.81;;;16.88;59.89
72262;BME280;60173;52.112;8.648;2022-07-15T06:53:12;101219.59;;;17.12;59.44
72262;BME280;60173;52.112;8.648;2022-07-15T06:55:39;101219.25;;;17.40;59.64
72262;BME280;60173;52.112;8.648;2022-07-15T06:58:05;101224.53;;;17.71;58.72
72262;BME280;60173;52.112;8.648;2022-07-15T07:00:31;101223.63;;;17.24;58.20
72262;BME280;60173;52.112;8.648;2022-07-15T07:02:58;101226.22;;;16.77;60.51
72262;BME280;60173;52.112;8.648;2022-07-15T07:05:24;101223.66;;;16.23;61.68
72262;BME280;60173;52.112;8.648;2022-07-15T07:07:51;101224.16;;;16.34;61.99
72262;BME280;60173;52.112;8.648;2022-07-15T07:10:17;101221.97;;;16.70;61.42
72262;BME280;60173;52.112;8.648;2022-07-15T07:12:50;101223.25;;;16.64;61.37
72262;BME280;60173;52.112;8.648;2022-07-15T07:15:16;101222.97;;;17.01;60.02
72262;BME280;60173;52.112;8.648;2022-07-15T07:17:43;101226.38;;;16.98;59.26
72262;BME280;60173;52.112;8.648;2022-07-15T07:20:10;101225.56;;;16.80;59.75
72262;BME280;60173;52.112;8.648;2022-07-15T07:22:36;101223.75;;;16.09;60.76
72262;BME280;60173;52.112;8.648;2022-07-15T07:25:03;101221.59;;;16.46;61.19
72262;BME280;60173;52.112;8.648;2022-07-15T07:27:29;101222.53;;;16.90;58.65
72262;BME280;60173;52.112;8.648;2022-07-15T07:29:56;101220.63;;;16.42;57.02
72262;BME280;60173;52.112;8.648;2022-07-15T07:32:22;101219.72;;;16.07;59.04
72262;BME280;60173;52.112;8.648;2022-07-15T07:34:48;101227.66;;;16.91;58.15
72262;BME280;60173;52.112;8.648;2022-07-15T07:37:15;101218.63;;;17.08;55.63
72262;BME280;60173;52.112;8.648;2022-07-15T07:39:41;101216.03;;;17.21;56.00
72262;BME280;60173;52.112;8.648;2022-07-15T07:42:07;101213.03;;;17.69;55.01
72262;BME280;60173;52.112;8.648;2022-07-15T07:44:34;101214.53;;;17.58;53.13
72262;BME280;60173;52.112;8.648;2022-07-15T07:47:00;101211.84;;;17.14;54.35
72262;BME280;60173;52.112;8.648;2022-07-15T07:49:27;101211.97;;;17.44;53.31
72262;BME280;60173;52.112;8.648;2022-07-15T07:52:04;101212.31;;;17.34;53.06
72262;BME280;60173;52.112;8.648;2022-07-15T07:54:31;101223.94;;;17.48;53.09
72262;BME280;60173;52.112;8.648;2022-07-15T07:56:57;101223.75;;;17.53;53.26
72262;BME280;60173;52.112;8.648;2022-07-15T07:59:24;101221.19;;;17.39;53.29
72262;BME280;60173;52.112;8.648;2022-07-15T08:01:50;101224.72;;;17.57;53.68
72262;BME280;60173;52.112;8.648;2022-07-15T08:04:17;101225.88;;;17.39;53.31
72262;BME280;60173;52.112;8.648;2022-07-15T08:06:43;101223.38;;;17.72;52.11
72262;BME280;60173;52.112;8.648;2022-07-15T08:09:09;101219.38;;;17.52;49.48
72262;BME280;60173;52.112;8.648;2022-07-15T08:11:36;101214.88;;;17.56;49.62
72262;BME280;60173;52.112;8.648;2022-07-15T08:14:02;101215.81;;;17.60;49.49
72262;BME280;60173;52.112;8.648;2022-07-15T08:16:29;101215.16;;;17.63;50.45
72262;BME280;60173;52.112;8.648;2022-07-15T08:18:55;101224.88;;;17.52;49.58
72262;BME280;60173;52.112;8.648;2022-07-15T08:21:22;101218.47;;;16.96;50.88
72262;BME280;60173;52.112;8.648;2022-07-15T08:23:48;101222.81;;;16.80;51.84
72262;BME280;60173;52.112;8.648;2022-07-15T08:26:14;101225.56;;;17.23;51.30
72262;BME280;60173;52.112;8.648;2022-07-15T08:28:44;101221.91;;;17.75;50.03
72262;BME280;60173;52.112;8.648;2022-07-15T08:31:34;101223.38;;;17.81;48.54
72262;BME280;60173;52.112;8.648;2022-07-15T08:34:02;101221.47;;;18.20;45.88
72262;BME280;60173;52.112;8.648;2022-07-15T08:36:29;101217.19;;;17.93;45.88
72262;BME280;60173;52.112;8.648;2022-07-15T08:38:56;101222.28;;;18.71;46.46
72262;BME280;60173;52.112;8.648;2022-07-15T08:41:22;101216.44;;;19.35;43.53
72262;BME280;60173;52.112;8.648;2022-07-15T08:43:49;101214.38;;;19.66;43.01
72262;BME280;60173;52.112;8.648;2022-07-15T08:46:15;101212.69;;;19.85;42.84
72262;BME280;60173;52.112;8.648;2022-07-15T08:48:48;101214.75;;;19.76;44.28
72262;BME280;60173;52.112;8.648;2022-07-15T08:51:22;101214.25;;;19.74;45.01
72262;BME280;60173;52.112;8.648;2022-07-15T08:53:50;101226.00;;;19.83;44.31
72262;BME280;60173;52.112;8.648;2022-07-15T08:56:18;101226.78;;;19.38;43.85
72262;BME280;60173;52.112;8.648;2022-07-15T08:58:45;101219.66;;;19.50;44.08
72262;BME280;60173;52.112;8.648;2022-07-15T09:01:24;101231.06;;;19.94;43.75
72262;BME280;60173;52.112;8.648;2022-07-15T09:03:50;101230.56;;;19.13;44.43
72262;BME280;60173;52.112;8.648;2022-07-15T09:06:40;101232.72;;;19.40;44.24
72262;BME280;60173;52.112;8.648;2022-07-15T09:09:32;101234.63;;;19.61;43.33
72262;BME280;60173;52.112;8.648;2022-07-15T09:12:06;101226.63;;;19.02;43.94
72262;BME280;60173;52.112;8.648;2022-07-15T09:14:43;101237.03;;;18.75;45.53
72262;BME280;60173;52.112;8.648;2022-07-15T09:22:33;101224.16;;;17.90;47.51
72262;BME280;60173;52.112;8.648;2022-07-15T09:25:05;101231.63;;;17.81;48.22
72262;BME280;60173;52.112;8.648;2022-07-15T09:27:38;101232.38;;;17.99;48.21
72262;BME280;60173;52.112;8.648;2022-07-15T09:30:31;101231.22;;;18.38;46.99
72262;BME280;60173;52.112;8.648;2022-07-15T09:32:59;101232.59;;;17.85;47.22
72262;BME280;60173;52.112;8.648;2022-07-15T09:35:27;101227.16;;;17.50;49.41
72262;BME280;60173;52.112;8.648;2022-07-15T09:37:58;101240.66;;;17.90;48.84
72262;BME280;60173;52.112;8.648;2022-07-15T09:40:25;101233.53;;;17.89;48.67
72262;BME280;60173;52.112;8.648;2022-07-15T09:43:05;101236.78;;;17.91;48.56
72262;BME280;60173;52.112;8.648;2022-07-15T09:45:35;101238.03;;;18.02;50.01
72262;BME280;60173;52.112;8.648;2022-07-15T09:48:09;101241.94;;;18.61;47.33
72262;BME280;60173;52.112;8.648;2022-07-15T09:50:36;101238.28;;;18.48;48.44
72262;BME280;60173;52.112;8.648;2022-07-15T09:53:07;101233.13;;;18.76;48.17
72262;BME280;60173;52.112;8.648;2022-07-15T09:55:36;101240.13;;;18.65;48.51
72262;BME280;60173;52.112;8.648;2022-07-15T09:58:03;101239.03;;;18.57;48.51
72262;BME280;60173;52.112;8.648;2022-07-15T10:00:30;101242.03;;;18.05;49.74
72262;BME280;60173;52.112;8.648;2022-07-15T10:02:57;101242.50;;;17.51;50.67
72262;BME280;60173;52.112;8.648;2022-07-15T10:05:24;101242.00;;;18.14;51.15
72262;BME280;60173;52.112;8.648;2022-07-15T10:07:51;101225.06;;;19.13;47.90
72262;BME280;60173;52.112;8.648;2022-07-15T10:10:19;101230.97;;;19.03;44.96
72262;BME280;60173;52.112;8.648;2022-07-15T10:13:11;101229.91;;;19.95;45.25
72262;BME280;60173;52.112;8.648;2022-07-15T10:29:41;101221.59;;;21.49;41.29
72262;BME280;60173;52.112;8.648;2022-07-15T10:32:07;101216.47;;;21.35;41.81
72262;BME280;60173;52.112;8.648;2022-07-15T10:34:41;101210.25;;;21.10;43.18
72262;BME280;60173;52.112;8.648;2022-07-15T10:37:09;101209.13;;;20.99;41.24
72262;BME280;60173;52.112;8.648;2022-07-15T10:39:59;101217.97;;;20.27;41.62
72262;BME280;60173;52.112;8.648;2022-07-15T10:42:25;101215.91;;;19.88;41.89
72262;BME280;60173;52.112;8.648;2022-07-15T10:47:24;101210.31;;;19.63;43.70
72262;BME280;60173;52.112;8.648;2022-07-15T10:49:51;101212.13;;;20.17;43.67
72262;BME280;60173;52.112;8.648;2022-07-15T10:57:50;101199.47;;;21.49;40.75
72262;BME280;60173;52.112;8.648;2022-07-15T11:00:27;101201.66;;;22.35;39.63
72262;BME280;60173;52.112;8.648;2022-07-15T11:05:33;101199.81;;;22.59;38.70
72262;BME280;60173;52.112;8.648;2022-07-15T11:07:59;101189.91;;;21.91;37.80
72262;BME280;60173;52.112;8.648;2022-07-15T11:10:26;101196.28;;;21.47;38.93
72262;BME280;60173;52.112;8.648;2022-07-15T11:15:20;101191.50;;;21.76;39.67
72262;BME280;60173;52.112;8.648;2022-07-15T11:17:48;101189.50;;;21.60;39.86
72262;BME280;60173;52.112;8.648;2022-07-15T11:20:33;101189.63;;;21.64;40.42
72262;BME280;60173;52.112;8.648;2022-07-15T11:23:01;101193.47;;;20.50;41.47
72262;BME280;60173;52.112;8.648;2022-07-15T11:25:30;101191.66;;;20.18;41.94
72262;BME280;60173;52.112;8.648;2022-07-15T11:30:31;101193.28;;;20.96;40.84
72262;BME280;60173;52.112;8.648;2022-07-15T11:32:59;101181.63;;;21.03;40.37
72262;BME280;60173;52.112;8.648;2022-07-15T11:35:27;101186.94;;;20.18;41.05
72262;BME280;60173;52.112;8.648;2022-07-15T11:38:03;101189.69;;;19.03;44.29
72262;BME280;60173;52.112;8.648;2022-07-15T11:40:31;101183.50;;;19.06;44.20
72262;BME280;60173;52.112;8.648;2022-07-15T11:42:59;101189.22;;;19.67;44.03
72262;BME280;60173;52.112;8.648;2022-07-15T11:45:35;101183.72;;;20.41;41.99
72262;BME280;60173;52.112;8.648;2022-07-15T11:48:05;101176.78;;;20.71;41.30
72262;BME280;60173;52.112;8.648;2022-07-15T11:50:48;101180.25;;;20.56;41.51
72262;BME280;60173;52.112;8.648;2022-07-15T11:53:15;101180.28;;;20.07;43.69
72262;BME280;60173;52.112;8.648;2022-07-15T11:55:53;101172.72;;;19.79;43.35
72262;BME280;60173;52.112;8.648;2022-07-15T11:58:36;101181.78;;;19.68;43.78
72262;BME280;60173;52.112;8.648;2022-07-15T12:01:06;101177.16;;;19.72;43.18
72262;BME280;60173;52.112;8.648;2022-07-15T12:03:38;101177.16;;;19.26;44.21
72262;BME280;60173;52.112;8.648;2022-07-15T12:06:16;101175.66;;;19.62;45.33
72262;BME280;60173;52.112;8.648;2022-07-15T12:08:54;101160.34;;;19.07;44.13
72262;BME280;60173;52.112;8.648;2022-07-15T12:11:32;101164.41;;;20.93;41.34
72262;BME280;60173;52.112;8.648;2022-07-15T12:14:01;101169.53;;;22.15;41.30
72262;BME280;60173;52.112;8.648;2022-07-15T12:16:31;101157.59;;;23.00;37.46
72262;BME280;60173;52.112;8.648;2022-07-15T12:19:02;101156.47;;;23.48;34.96
72262;BME280;60173;52.112;8.648;2022-07-15T12:21:30;101164.19;;;23.58;35.76
72262;BME280;60173;52.112;8.648;2022-07-15T12:24:10;101153.34;;;23.72;36.86
72262;BME280;60173;52.112;8.648;2022-07-15T12:26:56;101161.13;;;22.62;37.07
72262;BME280;60173;52.112;8.648;2022-07-15T12:29:25;101159.38;;;22.19;38.98
72262;BME280;60173;52.112;8.648;2022-07-15T12:32:13;101158.66;;;22.22;37.79
72262;BME280;60173;52.112;8.648;2022-07-15T12:34:52;101150.00;;;22.23;38.59
72262;BME280;60173;52.112;8.648;2022-07-15T12:37:47;101164.03;;;22.69;38.65
72262;BME280;60173;52.112;8.648;2022-07-15T12:40:21;101145.91;;;22.91;37.22
72262;BME280;60173;52.112;8.648;2022-07-15T12:42:49;101153.47;;;22.55;39.25
72262;BME280;60173;52.112;8.648;2022-07-15T12:45:17;101161.13;;;22.27;38.38
72262;BME280;60173;52.112;8.648;2022-07-15T12:50:34;101165.25;;;20.82;40.32
72262;BME280;60173;52.112;8.648;2022-07-15T12:53:02;101159.63;;;21.06;40.30
72262;BME280;60173;52.112;8.648;2022-07-15T12:55:31;101155.19;;;21.46;39.34
72262;BME280;60173;52.112;8.648;2022-07-15T12:58:06;101153.81;;;20.95;39.75
72262;BME280;60173;52.112;8.648;2022-07-15T13:00:33;101159.81;;;20.57;40.27
72262;BME280;60173;52.112;8.648;2022-07-15T13:03:04;101159.03;;;20.07;41.59
72262;BME280;60173;52.112;8.648;2022-07-15T13:05:39;101158.09;;;20.16;41.55
72262;BME280;60173;52.112;8.648;2022-07-15T13:08:08;101158.91;;;20.28;42.29
72262;BME280;60173;52.112;8.648;2022-07-15T13:10:36;101161.13;;;19.40;43.33
72262;BME280;60173;52.112;8.648;2022-07-15T13:13:03;101163.75;;;19.37;43.84
72262;BME280;60173;52.112;8.648;2022-07-15T13:15:31;101166.78;;;19.11;44.20
72262;BME280;60173;52.112;8.648;2022-07-15T13:17:57;101168.19;;;19.29;44.43
72262;BME280;60173;52.112;8.648;2022-07-15T13:20:24;101171.06;;;19.66;44.37
72262;BME280;60173;52.112;8.648;2022-07-15T13:22:51;101173.03;;;19.90;44.35
72262;BME280;60173;52.112;8.648;2022-07-15T13:25:18;101169.38;;;19.74;43.95
72262;BME280;60173;52.112;8.648;2022-07-15T13:27:45;101174.47;;;19.51;43.93
72262;BME280;60173;52.112;8.648;2022-07-15T13:30:12;101174.69;;;19.58;44.31
72262;BME280;60173;52.112;8.648;2022-07-15T13:32:39;101182.09;;;19.66;44.38
72262;BME280;60173;52.112;8.648;2022-07-15T13:35:07;101174.22;;;19.43;44.68